Time;durP1;ratioP1;P1;durP2;ratioP2;P2;SDS_P1;SDS_P2;PMS_P1;PMS_P2;Temp;Humidity;BMP_temperature;BMP_pressure;BME280_temperature;BME280_humidity;BME280_pressure;Samples;Min_cycle;Max_cycle;Signal;HPM_P1;HPM_P2
2021/03/16 00:01:16;;;;;;;25.63;4.20;;;25.90;91.50;;;;;;5022064;28;20077;-47
2021/03/16 00:03:45;;;;;;;30.95;4.38;;;25.90;91.50;;;;;;5021596;28;20334;-49
2021/03/16 00:06:15;;;;;;;14.45;2.20;;;25.90;91.40;;;;;;5021732;28;20078;-47
2021/03/16 00:08:42;;;;;;;10.98;2.25;;;25.90;91.30;;;;;;5020690;28;20401;-46
2021/03/16 00:11:09;;;;;;;12.45;2.05;;;25.80;91.30;;;;;;5021820;28;20045;-47
2021/03/16 00:13:37;;;;;;;12.27;2.42;;;25.80;91.20;;;;;;5021594;28;20245;-49
2021/03/16 00:16:04;;;;;;;6.50;1.90;;;25.80;91.10;;;;;;5021716;28;20295;-47
2021/03/16 00:18:31;;;;;;;5.65;1.98;;;25.80;91.10;;;;;;5021373;28;20025;-49
2021/03/16 00:20:58;;;;;;;6.07;1.90;;;25.80;91.00;;;;;;5004120;28;20022;-50
2021/03/16 00:23:34;;;;;;;5.10;1.85;;;25.80;90.90;;;;;;5021597;28;20018;-50
2021/03/16 00:26:01;;;;;;;9.25;1.95;;;25.80;90.80;;;;;;5020445;28;20049;-47
2021/03/16 00:28:34;;;;;;;5.43;1.70;;;25.80;90.80;;;;;;5022410;28;20324;-46
2021/03/16 00:31:00;;;;;;;9.68;2.13;;;25.90;90.70;;;;;;5021477;28;20083;-47
2021/03/16 00:33:28;;;;;;;16.23;10.95;;;25.80;90.60;;;;;;5021178;28;20022;-49
2021/03/16 00:35:55;;;;;;;8.90;5.72;;;25.80;90.60;;;;;;5021472;28;20074;-45
2021/03/16 00:38:21;;;;;;;12.02;7.18;;;25.90;90.70;;;;;;5003646;28;20315;-46
2021/03/16 00:40:58;;;;;;;4.90;2.67;;;25.90;90.60;;;;;;5021635;28;20057;-46
2021/03/16 00:43:27;;;;;;;4.72;2.47;;;25.90;90.50;;;;;;5021331;28;20016;-47
2021/03/16 00:45:54;;;;;;;4.63;1.95;;;25.90;90.40;;;;;;5021205;28;20051;-48
2021/03/16 00:48:20;;;;;;;5.28;1.98;;;25.90;90.40;;;;;;5020477;28;20045;-48
2021/03/16 00:50:51;;;;;;;5.25;2.28;;;25.90;90.40;;;;;;5021429;28;20041;-49
2021/03/16 00:53:18;;;;;;;6.30;2.40;;;25.90;90.50;;;;;;5021134;28;20033;-49
2021/03/16 00:55:45;;;;;;;6.93;2.28;;;25.90;90.60;;;;;;5023282;28;20053;-48
2021/03/16 00:58:13;;;;;;;4.13;2.33;;;25.90;90.70;;;;;;5024320;28;20018;-48
2021/03/16 01:00:42;;;;;;;6.90;2.40;;;25.90;91.10;;;;;;5007169;28;20448;-45
2021/03/16 01:03:09;;;;;;;9.18;2.50;;;25.90;90.80;;;;;;5024321;28;20245;-47
2021/03/16 01:05:36;;;;;;;12.05;2.30;;;25.90;90.80;;;;;;5015330;28;20102;-47
2021/03/16 01:08:04;;;;;;;9.52;4.03;;;25.90;90.80;;;;;;5022035;28;20110;-48
2021/03/16 01:10:52;;;;;;;10.25;4.35;;;25.90;90.80;;;;;;5037819;28;20037;-49
2021/03/16 01:13:21;;;;;;;11.60;3.53;;;25.90;91.00;;;;;;5026877;28;20025;-49
2021/03/16 01:15:51;;;;;;;8.90;2.70;;;25.90;91.20;;;;;;5026180;28;20210;-45
2021/03/16 01:18:18;;;;;;;4.88;1.80;;;25.90;91.30;;;;;;5000155;28;20026;-50
2021/03/16 01:20:47;;;;;;;8.95;2.47;;;25.90;91.30;;;;;;4993154;28;20022;-48
2021/03/16 01:23:15;;;;;;;14.90;11.93;;;25.90;91.30;;;;;;5020607;28;20018;-57
2021/03/16 01:25:42;;;;;;;17.77;15.52;;;26.00;91.40;;;;;;4997188;28;20315;-52
2021/03/16 01:28:09;;;;;;;19.05;9.90;;;25.90;91.20;;;;;;5011786;28;20034;-50
2021/03/16 01:30:35;;;;;;;13.77;7.97;;;26.00;91.30;;;;;;5015842;28;20022;-43
2021/03/16 01:33:02;;;;;;;7.15;5.20;;;26.00;91.40;;;;;;5033966;28;20034;-49
2021/03/16 01:35:29;;;;;;;8.60;3.97;;;26.00;91.30;;;;;;5014266;28;20302;-53
2021/03/16 01:37:57;;;;;;;5.13;2.78;;;26.00;91.30;;;;;;5010915;28;20223;-57
2021/03/16 01:40:34;;;;;;;9.13;2.38;;;26.00;91.10;;;;;;5013981;28;20021;-50
2021/03/16 01:43:22;;;;;;;7.30;2.30;;;26.10;91.10;;;;;;5018215;28;20016;-50
2021/03/16 01:45:50;;;;;;;8.68;2.53;;;26.00;91.00;;;;;;5018300;28;20050;-47
2021/03/16 01:48:22;;;;;;;6.25;1.50;;;26.00;91.10;;;;;;5019199;28;20322;-53
2021/03/16 01:50:51;;;;;;;9.05;1.58;;;26.00;90.90;;;;;;5011599;28;20034;-48
2021/03/16 01:53:18;;;;;;;12.10;2.22;;;26.10;90.90;;;;;;5012301;28;20105;-57
2021/03/16 01:55:49;;;;;;;9.40;1.58;;;26.00;90.90;;;;;;5012004;28;20033;-49
2021/03/16 01:58:16;;;;;;;6.50;2.08;;;26.00;91.00;;;;;;5012279;28;20022;-51
2021/03/16 02:00:44;;;;;;;4.57;2.17;;;26.00;90.90;;;;;;5017588;28;20219;-56
2021/03/16 02:03:12;;;;;;;4.00;1.90;;;26.00;90.90;;;;;;4996538;28;20329;-47
2021/03/16 02:05:40;;;;;;;4.55;1.85;;;26.00;91.00;;;;;;4996334;28;20030;-53
2021/03/16 02:08:22;;;;;;;4.13;1.90;;;26.00;91.10;;;;;;5012205;28;20117;-47
2021/03/16 02:11:07;;;;;;;4.18;1.52;;;26.00;90.90;;;;;;5015941;28;20066;-55
2021/03/16 02:13:47;;;;;;;5.78;1.75;;;26.00;90.60;;;;;;5015883;28;20089;-48
2021/03/16 02:16:21;;;;;;;6.40;1.70;;;26.00;90.60;;;;;;5016749;28;20269;-55
2021/03/16 02:18:56;;;;;;;10.55;1.95;;;26.10;90.50;;;;;;5013005;28;20035;-51
2021/03/16 02:21:32;;;;;;;7.22;2.17;;;26.00;90.40;;;;;;4995108;28;20014;-53
2021/03/16 02:24:08;;;;;;;4.72;1.60;;;26.00;90.50;;;;;;5012216;28;20022;-51
2021/03/16 02:26:53;;;;;;;14.27;9.95;;;26.00;90.40;;;;;;5023755;28;20037;-49
2021/03/16 02:29:27;;;;;;;11.80;7.05;;;26.10;90.20;;;;;;5002929;28;20026;-52
2021/03/16 02:31:59;;;;;;;12.50;4.85;;;26.00;90.40;;;;;;4987934;28;20030;-56
2021/03/16 02:34:28;;;;;;;8.85;2.90;;;26.00;90.40;;;;;;4990838;28;20022;-46
2021/03/16 02:36:56;;;;;;;23.95;4.40;;;26.00;90.20;;;;;;4987822;28;20075;-50
2021/03/16 02:39:27;;;;;;;9.43;2.40;;;26.00;90.20;;;;;;5069944;28;20093;-48
2021/03/16 02:41:55;;;;;;;7.20;2.53;;;26.00;90.10;;;;;;5002330;28;20050;-48
2021/03/16 02:44:26;;;;;;;5.55;2.30;;;26.00;90.20;;;;;;5067979;28;20030;-47
2021/03/16 02:46:54;;;;;;;4.95;2.30;;;26.00;89.80;;;;;;5070987;28;20027;-47
2021/03/16 02:49:31;;;;;;;7.65;1.95;;;26.00;89.80;;;;;;5003570;28;20026;-50
2021/03/16 02:51:59;;;;;;;6.38;2.00;;;26.00;89.00;;;;;;5003326;28;20018;-47
2021/03/16 02:54:26;;;;;;;4.72;2.10;;;26.00;89.20;;;;;;4987075;28;20029;-51
2021/03/16 02:56:56;;;;;;;5.82;2.30;;;26.00;88.80;;;;;;5003666;28;20052;-50
2021/03/16 02:59:25;;;;;;;4.57;2.33;;;26.00;88.60;;;;;;5003219;28;20338;-48
2021/03/16 03:01:53;;;;;;;6.00;2.15;;;26.00;88.80;;;;;;5086463;28;20314;-48
2021/03/16 03:04:21;;;;;;;7.63;2.50;;;26.00;89.10;;;;;;5001830;28;20018;-46
2021/03/16 03:06:53;;;;;;;5.70;2.28;;;26.00;89.80;;;;;;5002871;28;20026;-48
2021/03/16 03:09:19;;;;;;;6.07;2.88;;;26.00;89.30;;;;;;5002839;28;20039;-50
2021/03/16 03:11:46;;;;;;;4.50;2.22;;;26.00;89.30;;;;;;5003295;28;20041;-52
2021/03/16 03:14:15;;;;;;;5.28;2.33;;;26.00;89.60;;;;;;5002429;28;20120;-49
2021/03/16 03:16:42;;;;;;;7.60;1.90;;;26.00;89.90;;;;;;5003187;28;20036;-46
2021/03/16 03:19:10;;;;;;;4.93;2.00;;;25.90;90.00;;;;;;5001980;28;20022;-48
2021/03/16 03:21:49;;;;;;;7.35;2.30;;;25.90;90.10;;;;;;5020596;28;20033;-49
2021/03/16 03:24:23;;;;;;;3.22;1.70;;;25.90;90.10;;;;;;5022626;28;20083;-45
2021/03/16 03:27:02;;;;;;;5.60;1.77;;;25.90;90.10;;;;;;5004599;28;20093;-45
2021/03/16 03:29:31;;;;;;;8.50;2.30;;;26.00;90.00;;;;;;5002871;28;20018;-48
2021/03/16 03:31:59;;;;;;;6.22;2.00;;;25.90;89.70;;;;;;5003089;28;20075;-46
2021/03/16 03:34:27;;;;;;;6.22;2.03;;;25.90;89.20;;;;;;5002782;28;20025;-48
2021/03/16 03:36:58;;;;;;;9.85;1.90;;;25.90;89.60;;;;;;5003315;28;20299;-47
2021/03/16 03:39:27;;;;;;;4.47;2.17;;;25.90;89.40;;;;;;5002573;28;20206;-49
2021/03/16 03:41:54;;;;;;;7.03;2.30;;;25.90;89.90;;;;;;5003200;28;20033;-46
2021/03/16 03:44:24;;;;;;;6.35;1.80;;;25.90;89.90;;;;;;5002926;28;20295;-48
2021/03/16 03:46:51;;;;;;;6.43;2.05;;;25.90;89.60;;;;;;5002809;28;20310;-48
2021/03/16 03:49:20;;;;;;;3.58;1.90;;;25.90;89.30;;;;;;5002347;28;20041;-50
2021/03/16 03:51:50;;;;;;;7.30;2.05;;;25.90;89.50;;;;;;5002798;28;20358;-48
2021/03/16 03:54:18;;;;;;;6.78;2.30;;;25.90;89.20;;;;;;5002299;28;20045;-50
2021/03/16 03:56:46;;;;;;;5.50;2.10;;;25.90;89.20;;;;;;5002565;28;20093;-50
2021/03/16 03:59:15;;;;;;;5.72;1.90;;;25.90;88.60;;;;;;5002221;28;20041;-49
2021/03/16 04:01:42;;;;;;;6.75;2.15;;;25.90;89.00;;;;;;5002622;28;20030;-48
2021/03/16 04:04:09;;;;;;;10.35;2.15;;;26.00;89.10;;;;;;5002242;28;20018;-49
2021/03/16 04:06:36;;;;;;;3.22;2.10;;;25.90;89.00;;;;;;5002345;28;20341;-52
2021/03/16 04:09:04;;;;;;;4.60;2.50;;;25.90;88.80;;;;;;5001807;28;20383;-50
2021/03/16 04:11:31;;;;;;;7.20;3.00;;;25.90;89.00;;;;;;5002566;28;20037;-47
2021/03/16 04:13:59;;;;;;;8.25;2.30;;;25.90;88.70;;;;;;5002078;28;20049;-53
2021/03/16 04:16:26;;;;;;;6.25;2.33;;;25.90;88.50;;;;;;5002425;28;20034;-50
2021/03/16 04:18:54;;;;;;;6.00;2.17;;;25.90;88.20;;;;;;5001880;28;20022;-52
2021/03/16 04:21:21;;;;;;;5.72;2.08;;;25.90;88.10;;;;;;5001844;28;20033;-50
2021/03/16 04:23:48;;;;;;;10.43;3.28;;;25.90;88.10;;;;;;5002085;28;20409;-51
2021/03/16 04:26:15;;;;;;;4.47;2.83;;;25.90;88.50;;;;;;5002470;28;20033;-47
2021/03/16 04:28:41;;;;;;;5.32;2.78;;;25.90;88.40;;;;;;5001696;28;20080;-46
2021/03/16 04:31:09;;;;;;;4.22;2.40;;;25.90;88.50;;;;;;5001110;28;20026;-50
2021/03/16 04:33:36;;;;;;;8.00;2.60;;;25.90;88.50;;;;;;4984770;28;20068;-45
2021/03/16 04:36:03;;;;;;;4.32;2.80;;;25.90;88.60;;;;;;4984772;28;20030;-50
2021/03/16 04:38:29;;;;;;;4.45;2.50;;;25.90;88.70;;;;;;4984166;28;20038;-49
2021/03/16 04:40:56;;;;;;;4.10;2.10;;;25.90;88.80;;;;;;5001933;28;20026;-47
2021/03/16 04:43:23;;;;;;;5.97;2.42;;;25.90;88.90;;;;;;5001682;28;20010;-50
2021/03/16 04:45:50;;;;;;;5.20;2.35;;;25.90;88.90;;;;;;5001759;28;20046;-51
2021/03/16 04:48:17;;;;;;;5.18;2.40;;;25.90;88.60;;;;;;5001980;28;20027;-47
2021/03/16 04:50:44;;;;;;;5.18;2.17;;;25.90;88.90;;;;;;5001832;28;20026;-45
2021/03/16 04:53:30;;;;;;;3.80;1.85;;;25.90;88.70;;;;;;5001904;28;20029;-47
2021/03/16 04:55:57;;;;;;;4.00;1.90;;;25.90;89.40;;;;;;4984377;28;20062;-46
2021/03/16 04:58:24;;;;;;;6.38;2.13;;;25.90;88.70;;;;;;5001178;28;20022;-49
2021/03/16 05:00:51;;;;;;;4.35;2.30;;;25.90;88.70;;;;;;5002549;28;20030;-47
2021/03/16 05:03:17;;;;;;;5.47;2.30;;;25.90;89.40;;;;;;5001900;28;20022;-46
2021/03/16 05:05:44;;;;;;;3.42;1.88;;;25.90;89.30;;;;;;5001910;28;20030;-50
2021/03/16 05:08:11;;;;;;;9.52;2.45;;;25.80;89.20;;;;;;5001405;28;20025;-50
2021/03/16 05:10:37;;;;;;;3.63;1.90;;;25.90;88.80;;;;;;5001748;28;20031;-50
2021/03/16 05:13:04;;;;;;;4.53;1.88;;;25.80;88.50;;;;;;5001140;28;20314;-52
2021/03/16 05:15:30;;;;;;;5.95;1.98;;;25.90;88.90;;;;;;5001598;28;20081;-50
2021/03/16 05:17:57;;;;;;;6.38;2.05;;;25.80;89.20;;;;;;5001343;28;20022;-49
2021/03/16 05:20:24;;;;;;;7.32;1.73;;;25.80;89.50;;;;;;5001221;28;20026;-47
2021/03/16 05:22:51;;;;;;;7.82;2.03;;;25.80;89.20;;;;;;5001301;28;20026;-48
2021/03/16 05:25:19;;;;;;;4.25;1.90;;;25.80;89.00;;;;;;5001219;28;20045;-49
2021/03/16 05:27:46;;;;;;;3.88;1.70;;;25.80;89.10;;;;;;5001004;28;20022;-49
2021/03/16 05:30:14;;;;;;;4.75;1.63;;;25.80;89.30;;;;;;5001459;28;20026;-49
2021/03/16 05:32:41;;;;;;;3.17;1.50;;;25.80;89.30;;;;;;5001064;28;20033;-51
2021/03/16 05:35:08;;;;;;;5.07;1.60;;;25.80;89.10;;;;;;5000825;28;20079;-49
2021/03/16 05:37:34;;;;;;;3.45;1.73;;;25.80;88.90;;;;;;5001435;28;20045;-47
2021/03/16 05:40:01;;;;;;;6.40;1.75;;;25.80;88.80;;;;;;4984150;28;20196;-55
2021/03/16 05:42:28;;;;;;;5.53;1.92;;;25.80;88.80;;;;;;5003437;28;20022;-46
2021/03/16 05:44:57;;;;;;;4.53;1.80;;;25.80;88.60;;;;;;5004157;28;20014;-48
2021/03/16 05:47:27;;;;;;;5.10;1.65;;;25.80;88.20;;;;;;5004250;28;20018;-47
2021/03/16 05:49:57;;;;;;;6.53;1.60;;;25.90;88.40;;;;;;5004247;28;20311;-47
2021/03/16 05:52:27;;;;;;;5.25;1.60;;;25.80;88.60;;;;;;4988242;28;20199;-49
2021/03/16 05:54:57;;;;;;;6.43;1.80;;;25.80;88.60;;;;;;4988906;28;20046;-46
2021/03/16 05:57:26;;;;;;;3.45;1.77;;;25.90;88.70;;;;;;5005429;28;20026;-50
2021/03/16 05:59:53;;;;;;;3.60;1.95;;;25.80;88.80;;;;;;4987352;28;20317;-47
2021/03/16 06:02:21;;;;;;;3.95;1.55;;;25.90;88.70;;;;;;5004551;28;20018;-48
2021/03/16 06:04:48;;;;;;;4.55;1.75;;;25.80;88.40;;;;;;5003908;28;20356;-48
2021/03/16 06:07:15;;;;;;;5.53;1.50;;;25.90;88.40;;;;;;4987507;28;20018;-48
2021/03/16 06:09:43;;;;;;;3.03;1.50;;;25.80;87.70;;;;;;5003787;28;20046;-47
2021/03/16 06:12:11;;;;;;;2.40;1.70;;;25.80;87.80;;;;;;5004188;28;20087;-47
2021/03/16 06:14:38;;;;;;;7.43;1.88;;;25.80;87.40;;;;;;5004229;28;20025;-48
2021/03/16 06:17:05;;;;;;;5.05;1.88;;;25.90;87.80;;;;;;5004148;28;20023;-49
2021/03/16 06:19:41;;;;;;;4.55;1.80;;;25.90;87.90;;;;;;5003859;28;20030;-48
2021/03/16 06:22:08;;;;;;;6.07;2.17;;;25.90;87.70;;;;;;5003599;28;20322;-49
2021/03/16 06:24:46;;;;;;;3.80;1.85;;;25.90;87.70;;;;;;5003634;28;20014;-49
2021/03/16 06:27:26;;;;;;;8.10;1.90;;;25.90;87.10;;;;;;5003795;28;20207;-46
2021/03/16 06:29:53;;;;;;;5.80;2.30;;;25.90;87.10;;;;;;5003650;28;20380;-46
2021/03/16 06:32:21;;;;;;;8.82;2.08;;;25.90;87.30;;;;;;5003829;28;20060;-50
2021/03/16 06:34:57;;;;;;;4.97;1.90;;;25.90;87.00;;;;;;5003519;28;20019;-48
2021/03/16 06:37:24;;;;;;;3.67;1.67;;;25.90;86.90;;;;;;5003473;28;20026;-47
2021/03/16 06:39:54;;;;;;;5.18;1.90;;;25.90;87.10;;;;;;5003599;28;20022;-48
2021/03/16 06:42:29;;;;;;;4.10;1.85;;;25.90;86.60;;;;;;5003418;28;20065;-47
2021/03/16 06:45:08;;;;;;;5.07;2.03;;;25.90;86.40;;;;;;5003362;28;20101;-50
2021/03/16 06:47:42;;;;;;;5.05;2.10;;;25.90;86.80;;;;;;5003494;28;20252;-48
2021/03/16 06:50:12;;;;;;;3.25;1.90;;;25.90;86.50;;;;;;5003863;28;20022;-53
2021/03/16 06:52:39;;;;;;;5.50;2.00;;;25.90;86.70;;;;;;5002572;28;20026;-49
2021/03/16 06:55:13;;;;;;;2.83;1.85;;;25.90;86.60;;;;;;5003352;28;20032;-50
2021/03/16 06:57:40;;;;;;;6.70;1.77;;;25.90;85.90;;;;;;5003320;28;20026;-51
2021/03/16 07:00:08;;;;;;;6.45;1.98;;;25.80;86.20;;;;;;5003502;28;20360;-54
2021/03/16 07:02:35;;;;;;;7.25;2.30;;;25.90;86.40;;;;;;5003018;28;20057;-51
2021/03/16 07:05:02;;;;;;;4.55;1.88;;;25.90;86.30;;;;;;4985664;28;20026;-51
2021/03/16 07:07:29;;;;;;;7.45;2.42;;;25.90;86.20;;;;;;5003133;28;20022;-47
2021/03/16 07:09:59;;;;;;;5.05;1.77;;;25.90;86.40;;;;;;5002625;28;20054;-47
2021/03/16 07:12:32;;;;;;;15.57;3.78;;;25.90;86.80;;;;;;5002938;28;20342;-46
2021/03/16 07:15:01;;;;;;;13.23;3.17;;;25.90;87.30;;;;;;5002794;28;20109;-50
2021/03/16 07:17:32;;;;;;;10.25;2.85;;;25.90;87.90;;;;;;4985707;28;20433;-48
2021/03/16 07:20:07;;;;;;;6.03;2.53;;;25.90;87.50;;;;;;5002820;28;20037;-47
2021/03/16 07:22:37;;;;;;;9.63;2.60;;;25.90;87.90;;;;;;5002820;28;20014;-50
2021/03/16 07:25:09;;;;;;;9.13;2.60;;;25.80;88.00;;;;;;5003377;28;20046;-47
2021/03/16 07:27:36;;;;;;;6.50;2.58;;;25.80;88.60;;;;;;5002912;28;20089;-45
2021/03/16 07:30:04;;;;;;;5.97;2.58;;;25.80;88.80;;;;;;5002730;28;20084;-48
2021/03/16 07:32:31;;;;;;;7.43;2.45;;;25.80;89.70;;;;;;5002642;28;20057;-46
2021/03/16 07:35:01;;;;;;;6.07;2.35;;;25.70;90.10;;;;;;5002697;28;20079;-46
2021/03/16 07:37:29;;;;;;;5.30;2.33;;;25.70;90.10;;;;;;5002806;28;20080;-47
2021/03/16 07:40:03;;;;;;;10.77;2.70;;;25.70;90.10;;;;;;5003213;28;20053;-47
2021/03/16 07:42:30;;;;;;;6.30;2.47;;;25.70;90.40;;;;;;5002569;28;20014;-48
2021/03/16 07:44:56;;;;;;;6.78;2.55;;;25.70;90.20;;;;;;5002422;28;20075;-51
2021/03/16 07:47:38;;;;;;;4.47;2.88;;;25.70;90.20;;;;;;5002372;28;20183;-48
2021/03/16 07:50:09;;;;;;;6.97;2.60;;;25.70;90.30;;;;;;5002695;28;20111;-50
2021/03/16 07:52:46;;;;;;;4.50;2.70;;;25.70;90.40;;;;;;5002661;28;20038;-58
2021/03/16 07:55:30;;;;;;;6.18;2.20;;;25.70;90.30;;;;;;5002244;28;20041;-47
2021/03/16 07:58:07;;;;;;;3.83;2.22;;;25.70;90.00;;;;;;5002273;28;20023;-49
2021/03/16 08:00:34;;;;;;;4.38;2.20;;;25.70;90.00;;;;;;5002548;28;20026;-47
2021/03/16 08:03:02;;;;;;;4.30;2.20;;;25.70;89.70;;;;;;5002466;28;20018;-47
2021/03/16 08:05:40;;;;;;;4.65;2.00;;;25.70;89.30;;;;;;5002378;28;20022;-48
2021/03/16 08:08:17;;;;;;;3.30;2.28;;;25.60;89.30;;;;;;5002434;28;20082;-47
2021/03/16 08:10:45;;;;;;;3.50;1.83;;;25.60;89.00;;;;;;5002674;28;20121;-48
2021/03/16 08:13:19;;;;;;;3.95;2.30;;;25.60;89.10;;;;;;5001886;28;20315;-47
2021/03/16 08:15:47;;;;;;;3.88;2.22;;;25.60;89.00;;;;;;5002262;28;20031;-53
2021/03/16 08:18:35;;;;;;;8.07;2.13;;;25.60;88.50;;;;;;5002278;28;20356;-48
2021/03/16 08:21:12;;;;;;;3.92;1.92;;;25.60;88.40;;;;;;5001877;28;20030;-47
2021/03/16 08:23:40;;;;;;;3.75;1.95;;;25.60;88.30;;;;;;5001892;28;20025;-48
2021/03/16 08:26:08;;;;;;;3.15;2.10;;;25.60;88.20;;;;;;5002509;28;20080;-47
2021/03/16 08:28:35;;;;;;;6.00;2.28;;;25.60;88.40;;;;;;5002293;28;20014;-50
2021/03/16 08:31:03;;;;;;;4.25;2.30;;;25.60;88.50;;;;;;5001973;28;20311;-49
2021/03/16 08:33:30;;;;;;;5.72;2.47;;;25.60;88.80;;;;;;5001979;28;20049;-48
2021/03/16 08:35:57;;;;;;;6.00;2.50;;;25.60;89.00;;;;;;5002171;28;20030;-51
2021/03/16 08:38:29;;;;;;;6.03;2.70;;;25.50;88.90;;;;;;5002011;28;20022;-52
2021/03/16 08:41:15;;;;;;;4.28;2.55;;;25.50;89.10;;;;;;5002322;28;20277;-50
2021/03/16 08:43:43;;;;;;;4.32;2.53;;;25.50;89.10;;;;;;5001485;28;20018;-49
2021/03/16 08:46:10;;;;;;;4.53;2.67;;;25.50;89.20;;;;;;5002211;28;20102;-49
2021/03/16 08:48:37;;;;;;;3.80;2.60;;;25.50;89.10;;;;;;4984628;28;20022;-48
2021/03/16 08:51:04;;;;;;;4.60;2.22;;;25.50;89.10;;;;;;5002181;28;20037;-52
2021/03/16 08:53:31;;;;;;;6.20;2.55;;;25.50;89.00;;;;;;5001842;28;20235;-48
2021/03/16 08:55:58;;;;;;;3.75;2.13;;;25.50;89.10;;;;;;5001544;28;20080;-47
2021/03/16 08:58:25;;;;;;;5.85;2.42;;;25.50;88.80;;;;;;5001453;28;20089;-51
2021/03/16 09:00:52;;;;;;;6.57;2.65;;;25.50;88.90;;;;;;5001581;28;20073;-50
2021/03/16 09:03:28;;;;;;;3.55;2.05;;;25.50;88.90;;;;;;5001360;28;20014;-51
2021/03/16 09:05:55;;;;;;;4.65;2.45;;;25.50;89.50;;;;;;5001267;28;20073;-47
2021/03/16 09:08:22;;;;;;;6.07;2.80;;;25.50;89.00;;;;;;5001295;28;20055;-49
2021/03/16 09:10:49;;;;;;;5.95;2.72;;;25.50;89.00;;;;;;5001436;28;20034;-51
2021/03/16 09:13:27;;;;;;;5.65;2.58;;;25.50;89.00;;;;;;5001654;28;20021;-47
2021/03/16 09:15:53;;;;;;;4.88;2.30;;;25.50;89.00;;;;;;5002541;28;20034;-46
2021/03/16 09:18:22;;;;;;;5.00;2.78;;;25.50;89.10;;;;;;5004961;28;20081;-50
2021/03/16 09:20:49;;;;;;;2.85;2.20;;;25.50;89.10;;;;;;5005074;28;20045;-51
2021/03/16 09:23:16;;;;;;;6.28;2.33;;;25.50;89.00;;;;;;5004620;28;20014;-47
2021/03/16 09:25:45;;;;;;;4.55;2.60;;;25.50;88.80;;;;;;5004689;28;20022;-48
2021/03/16 09:28:14;;;;;;;5.68;2.33;;;25.50;88.60;;;;;;5004652;28;20025;-50
2021/03/16 09:30:54;;;;;;;3.85;2.25;;;25.50;88.40;;;;;;5004753;28;20031;-48
2021/03/16 09:33:23;;;;;;;5.95;2.72;;;25.50;88.40;;;;;;5004783;28;20346;-51
2021/03/16 09:36:01;;;;;;;7.03;2.67;;;25.50;88.20;;;;;;5005057;28;20409;-48
2021/03/16 09:38:28;;;;;;;6.97;2.40;;;25.50;88.00;;;;;;5004220;28;20061;-53
2021/03/16 09:40:57;;;;;;;4.30;1.95;;;25.40;87.70;;;;;;5004561;28;20037;-52
2021/03/16 09:43:36;;;;;;;2.80;1.92;;;25.40;87.40;;;;;;5004631;28;20077;-46
2021/03/16 09:46:07;;;;;;;3.42;2.10;;;25.40;87.10;;;;;;5004618;28;20188;-47
2021/03/16 09:48:34;;;;;;;4.03;2.20;;;25.40;87.00;;;;;;5004197;28;20063;-50
2021/03/16 09:51:11;;;;;;;4.22;2.13;;;25.40;86.80;;;;;;5004795;28;20036;-49
2021/03/16 09:53:40;;;;;;;4.10;2.38;;;25.40;86.60;;;;;;5004237;28;20030;-48
2021/03/16 09:56:09;;;;;;;3.03;1.80;;;25.50;86.60;;;;;;5004202;28;20054;-47
2021/03/16 09:58:36;;;;;;;4.50;2.30;;;25.40;86.30;;;;;;5004236;28;20018;-52
2021/03/16 10:01:04;;;;;;;4.43;2.00;;;25.50;86.60;;;;;;5004322;28;20049;-51
2021/03/16 10:03:31;;;;;;;4.03;2.22;;;25.50;86.50;;;;;;5004165;28;20317;-47
2021/03/16 10:06:05;;;;;;;4.05;2.10;;;25.50;86.60;;;;;;5004176;28;20337;-49
2021/03/16 10:08:33;;;;;;;2.30;2.08;;;25.50;86.40;;;;;;5004063;28;20053;-47
2021/03/16 10:11:00;;;;;;;3.53;2.20;;;25.50;86.50;;;;;;5004225;28;20031;-46
2021/03/16 10:13:37;;;;;;;4.20;2.20;;;25.50;86.20;;;;;;5004127;28;20084;-49
2021/03/16 10:16:08;;;;;;;4.22;2.20;;;25.50;86.20;;;;;;5004438;28;20023;-50
2021/03/16 10:18:40;;;;;;;4.77;1.87;;;25.50;86.00;;;;;;5003964;28;20263;-53
2021/03/16 10:21:07;;;;;;;4.93;2.50;;;25.50;85.90;;;;;;5004456;28;20269;-51
2021/03/16 10:23:34;;;;;;;3.60;2.20;;;25.50;86.00;;;;;;5003784;28;20014;-52
2021/03/16 10:26:07;;;;;;;7.68;2.17;;;25.50;85.90;;;;;;4986423;28;20204;-52
2021/03/16 10:28:41;;;;;;;3.95;1.90;;;25.50;86.10;;;;;;5003868;28;20018;-53
2021/03/16 10:31:25;;;;;;;3.95;1.90;;;25.50;85.80;;;;;;5003809;28;20034;-50
2021/03/16 10:33:54;;;;;;;3.85;1.95;;;25.50;85.80;;;;;;5003575;28;20080;-53
2021/03/16 10:36:22;;;;;;;4.72;2.15;;;25.50;85.80;;;;;;5003707;28;20022;-49
2021/03/16 10:38:52;;;;;;;3.55;1.80;;;25.50;85.90;;;;;;5003276;28;20018;-50
2021/03/16 10:41:22;;;;;;;4.05;2.05;;;25.50;85.80;;;;;;4985989;28;20286;-51
2021/03/16 10:43:49;;;;;;;4.95;2.38;;;25.50;85.50;;;;;;5003185;28;20014;-51
2021/03/16 10:46:16;;;;;;;4.25;2.00;;;25.50;85.70;;;;;;5003780;28;20037;-54
2021/03/16 10:48:42;;;;;;;3.42;1.85;;;25.50;85.50;;;;;;5003332;28;20311;-50
2021/03/16 10:51:09;;;;;;;3.88;2.05;;;25.50;85.20;;;;;;5003424;28;20053;-50
2021/03/16 10:53:35;;;;;;;3.85;2.30;;;25.60;85.70;;;;;;5003362;28;20018;-52
2021/03/16 10:56:05;;;;;;;4.55;2.10;;;25.60;85.80;;;;;;5003434;28;20084;-52
2021/03/16 10:58:33;;;;;;;4.05;2.30;;;25.50;85.40;;;;;;5003256;28;20048;-51
2021/03/16 11:01:00;;;;;;;3.60;2.00;;;25.50;85.50;;;;;;5003318;28;20114;-50
2021/03/16 11:03:27;;;;;;;4.85;2.30;;;25.60;85.50;;;;;;5002944;28;20077;-52
2021/03/16 11:05:53;;;;;;;11.07;2.30;;;25.60;85.50;;;;;;5003213;28;20023;-50
2021/03/16 11:08:20;;;;;;;19.17;3.20;;;25.60;85.50;;;;;;5003006;28;20057;-53
2021/03/16 11:10:47;;;;;;;17.58;7.32;;;25.60;84.90;;;;;;5003011;28;20026;-51
2021/03/16 11:13:13;;;;;;;12.52;2.80;;;25.60;85.10;;;;;;5002504;28;20387;-48
2021/03/16 11:15:40;;;;;;;13.73;3.58;;;25.60;84.80;;;;;;5002562;28;20029;-50
2021/03/16 11:18:06;;;;;;;11.57;3.72;;;25.50;85.10;;;;;;5002486;28;20095;-48
2021/03/16 11:20:33;;;;;;;9.30;3.20;;;25.60;85.40;;;;;;5002486;28;20064;-50
2021/03/16 11:23:00;;;;;;;7.43;3.13;;;25.60;85.70;;;;;;5002759;28;20021;-48
2021/03/16 11:25:26;;;;;;;7.93;2.55;;;25.50;85.90;;;;;;5003790;28;20103;-49
2021/03/16 11:27:53;;;;;;;5.07;2.45;;;25.60;86.40;;;;;;5003490;28;20018;-48
2021/03/16 11:30:20;;;;;;;7.10;2.70;;;25.60;86.60;;;;;;5003777;28;20048;-50
2021/03/16 11:32:46;;;;;;;10.15;2.72;;;25.60;86.70;;;;;;5003089;28;20022;-49
2021/03/16 11:35:13;;;;;;;8.88;2.72;;;25.60;87.00;;;;;;5003444;28;20038;-49
2021/03/16 11:37:40;;;;;;;4.78;2.80;;;25.60;87.20;;;;;;5003361;28;20014;-47
2021/03/16 11:40:07;;;;;;;5.80;2.38;;;25.60;87.50;;;;;;5002609;28;20022;-46
2021/03/16 11:42:33;;;;;;;6.13;2.60;;;25.60;87.30;;;;;;5003089;28;20022;-46
2021/03/16 11:45:00;;;;;;;2.70;2.25;;;25.60;87.30;;;;;;5003389;28;20030;-51
2021/03/16 11:47:27;;;;;;;3.92;3.00;;;25.60;87.20;;;;;;5003007;28;20025;-46
2021/03/16 11:49:54;;;;;;;5.40;2.30;;;25.60;87.20;;;;;;5003074;28;20025;-50
2021/03/16 11:52:20;;;;;;;4.93;2.30;;;25.60;87.20;;;;;;5002888;28;20285;-48
2021/03/16 11:54:48;;;;;;;4.10;2.25;;;25.60;87.10;;;;;;5003137;28;20093;-45
2021/03/16 11:57:14;;;;;;;5.22;2.13;;;25.60;87.20;;;;;;5002942;28;20314;-46
2021/03/16 11:59:41;;;;;;;12.75;3.13;;;25.60;87.00;;;;;;4985555;28;20235;-46
2021/03/16 12:02:08;;;;;;;9.43;2.38;;;25.60;87.00;;;;;;5002669;28;20019;-49
2021/03/16 12:04:34;;;;;;;12.95;3.00;;;25.70;87.20;;;;;;5001427;28;20022;-47
2021/03/16 12:07:01;;;;;;;8.23;3.33;;;25.60;87.10;;;;;;5002648;28;20030;-48
2021/03/16 12:09:34;;;;;;;9.32;2.95;;;25.70;87.10;;;;;;5002187;28;20073;-46
2021/03/16 12:12:01;;;;;;;6.28;3.20;;;25.70;87.10;;;;;;5001974;28;20030;-47
2021/03/16 12:14:27;;;;;;;7.45;2.67;;;25.70;87.20;;;;;;5002349;28;20022;-46
2021/03/16 12:16:54;;;;;;;7.00;2.88;;;25.70;87.20;;;;;;4985199;28;20069;-47
2021/03/16 12:19:21;;;;;;;7.57;3.30;;;25.70;87.50;;;;;;5001943;28;20049;-46
2021/03/16 12:21:48;;;;;;;6.80;2.90;;;25.70;87.40;;;;;;5002757;28;20151;-48
2021/03/16 12:24:14;;;;;;;3.78;2.63;;;25.70;87.70;;;;;;5002299;28;20034;-48
2021/03/16 12:26:41;;;;;;;6.90;2.72;;;25.70;87.70;;;;;;5002484;28;20014;-47
2021/03/16 12:29:08;;;;;;;4.82;2.75;;;25.70;87.90;;;;;;5001986;28;20353;-47
2021/03/16 12:31:35;;;;;;;9.27;3.13;;;25.70;87.80;;;;;;5002883;28;20046;-53
2021/03/16 12:34:01;;;;;;;6.80;3.67;;;25.70;88.10;;;;;;5002324;28;20207;-47
2021/03/16 12:36:28;;;;;;;7.07;2.95;;;25.70;88.10;;;;;;5001926;28;20076;-45
2021/03/16 12:38:55;;;;;;;7.47;3.13;;;25.70;88.10;;;;;;5002089;28;20311;-47
2021/03/16 12:41:21;;;;;;;5.47;3.28;;;25.70;88.40;;;;;;5002279;28;20023;-48
2021/03/16 12:43:48;;;;;;;9.88;4.18;;;25.80;88.40;;;;;;5002296;28;20027;-48
2021/03/16 12:46:15;;;;;;;8.82;4.38;;;25.80;88.60;;;;;;5002567;28;20140;-48
2021/03/16 12:48:48;;;;;;;8.00;4.43;;;25.80;88.70;;;;;;5001728;28;20022;-54
2021/03/16 12:51:14;;;;;;;17.00;4.20;;;25.80;88.80;;;;;;5003017;28;20026;-46
2021/03/16 12:53:41;;;;;;;9.75;3.92;;;25.80;88.90;;;;;;4987391;28;20033;-44
2021/03/16 12:56:08;;;;;;;8.63;3.50;;;25.80;88.80;;;;;;5004868;28;20026;-42